Airfield :
LOGIN :

Register | Disclaimer

   EN    FR    IT 

 










Legend :    VFR   Marginal VFR   IFR   Intensive IFR   Very Intensive IFR
Visi :
Ceiling :
>= 8 km
>= 3000ft
5 to 8 km
1000 to 3000 ft
1500m to 5 km
500 to 1000 ft
800 to 1500m
200 to 500 ft
< 800m
< 200 ft
Symbols :   Thunderstorms  Fog  Heavy snow  Heavy precipitations  Wind > 20 kt
SIGMETs :     Misc.  Thunderstorms  Icing  Turbulence  Mountain Waves  Volcanic Ashes






- Airport Elevation : 2697 ft
- IATA code : BLJ


DABT - Batna

CURRENT METAR :
  • 221800Z 16023KT 8000 FEW030 25/09 Q1012

EXPIRED METARs :
  • 221700Z 16025KT 7000 FEW030 28/08 Q1012
  • 221600Z 15016KT 7000 NSC 28/08 Q1011

TAF TAF DABT
Valid from the 22 at 18:00 until the 23 at 18:00 UTC


221700Z 2218/2318 16024KT 7000 FEW030
PROB40
TEMPO 2218/2224 16025G35KT FEW026TCU FEW030CB
PROB30
TEMPO 2222/2306 5000 -TSRA FEW026CB



MET'MAP, your aeronautical weather chart ! - Copyright ORBIFLY December 2007 - Disclaimer

ORBIFLY MET'MAP TEAM :

Programming & Development : Alexandra Zaïnal
Concept & Development : Baudouin d'Aumeries
Co-Development & Prog : Marc-Olivier Méhu
Technical & hardware support : Manuel Goepfert

Contact : metmap@orbifly.com




SOURCES & CREDITS :

   NOAA